Time;durP1;ratioP1;P1;durP2;ratioP2;P2;SDS_P1;SDS_P2;PMS_P1;PMS_P2;Temp;Humidity;BMP_temperature;BMP_pressure;BME280_temperature;BME280_humidity;BME280_pressure;Samples;Min_cycle;Max_cycle;Signal;HPM_P1;HPM_P2
2023/05/06 00:02:11;;;;;;;11.40;5.27;;;;;;;8.30;79.66;101236.58;5019189;57;1136574;-75
2023/05/06 00:07:17;;;;;;;12.40;5.27;;;;;;;8.35;80.43;101238.53;5025488;57;1138789;-78
2023/05/06 00:12:23;;;;;;;12.27;5.50;;;;;;;8.40;80.18;101240.45;5032115;56;1153015;-77
2023/05/06 00:17:29;;;;;;;10.17;5.47;;;;;;;8.43;80.77;101238.45;5052403;56;1138897;-79
2023/05/06 00:22:34;;;;;;;13.28;6.08;;;;;;;8.42;81.48;101229.32;5033424;56;1136760;-77
2023/05/06 00:27:40;;;;;;;14.78;5.80;;;;;;;8.39;81.64;101220.30;5033588;56;1136739;-79
2023/05/06 00:32:45;;;;;;;15.80;5.30;;;;;;;8.40;82.17;101214.91;5052860;56;1138939;-80
2023/05/06 00:38:07;;;;;;;14.17;5.90;;;;;;;8.47;82.42;101210.14;5033215;56;1138829;-76
2023/05/06 00:43:13;;;;;;;11.43;6.20;;;;;;;8.50;82.39;101198.58;5032227;56;1138834;-75
2023/05/06 00:48:19;;;;;;;14.93;7.30;;;;;;;8.50;83.53;101202.06;5051869;56;1139099;-77
2023/05/06 00:53:25;;;;;;;18.07;7.25;;;;;;;8.47;83.80;101202.23;5036522;56;1136656;-77
2023/05/06 00:58:31;;;;;;;15.43;6.28;;;;;;;8.43;84.86;101205.98;4950982;57;1136692;-78
2023/05/06 01:03:37;;;;;;;18.02;7.35;;;;;;;8.40;85.89;101189.87;5096963;56;1138781;-77
2023/05/06 01:08:57;;;;;;;20.83;7.60;;;;;;;8.39;86.16;101185.56;5116684;55;1138776;-76
2023/05/06 01:14:31;;;;;;;12.67;6.07;;;;;;;8.42;87.32;101192.41;5096870;55;1139227;-76
2023/05/06 01:19:41;;;;;;;10.70;5.35;;;;;;;8.49;88.65;101185.02;5033352;57;1138989;-77
2023/05/06 01:24:47;;;;;;;10.87;6.77;;;;;;;8.53;89.02;101167.62;5033100;57;1138816;-79
2023/05/06 01:29:53;;;;;;;13.67;6.93;;;;;;;8.52;89.14;101170.34;5052428;57;1138629;-74
2023/05/06 01:35:27;;;;;;;14.87;6.97;;;;;;;8.50;89.58;101181.44;5031736;57;1138795;-75
2023/05/06 01:40:35;;;;;;;16.70;8.00;;;;;;;8.54;89.62;101178.55;5032562;57;1138870;-77
2023/05/06 01:45:42;;;;;;;13.53;6.77;;;;;;;8.53;90.46;101179.48;5032980;57;1138937;-74
2023/05/06 01:50:49;;;;;;;15.37;7.30;;;;;;;8.55;91.17;101156.52;5052772;56;1138753;-77
2023/05/06 01:55:54;;;;;;;12.27;7.53;;;;;;;8.53;91.77;101147.84;4982102;55;1138885;-76
2023/05/06 02:01:00;;;;;;;18.53;7.03;;;;;;;8.54;92.18;101135.05;4947021;58;1138848;-77
2023/05/06 02:06:05;;;;;;;12.10;5.90;;;;;;;8.57;92.05;101137.47;4990541;57;1138833;-78
2023/05/06 02:11:13;;;;;;;15.23;6.80;;;;;;;8.64;92.42;101133.55;5066718;56;1138953;-79
2023/05/06 02:16:20;;;;;;;14.20;6.60;;;;;;;8.66;91.49;101146.17;5043661;57;1138857;-78
2023/05/06 02:21:27;;;;;;;14.77;6.80;;;;;;;8.70;91.00;101151.66;5076091;56;1139206;-80
2023/05/06 02:26:33;;;;;;;9.60;6.00;;;;;;;8.73;90.33;101149.28;5067044;56;1138732;-77
2023/05/06 02:31:38;;;;;;;9.90;6.43;;;;;;;8.76;90.35;101154.38;5067342;56;1136710;-78
2023/05/06 02:36:44;;;;;;;14.37;6.40;;;;;;;8.78;89.87;101161.73;5086953;57;1136670;-78
2023/05/06 02:41:49;;;;;;;12.33;5.53;;;;;;;8.82;89.41;101150.06;5013323;57;1138903;-75
2023/05/06 02:46:56;;;;;;;10.53;4.73;;;;;;;8.85;88.31;101142.44;4967689;56;1138631;-76
2023/05/06 02:52:01;;;;;;;11.70;4.97;;;;;;;8.86;87.33;101130.95;4970159;58;1138735;-77
2023/05/06 02:57:07;;;;;;;8.30;4.80;;;;;;;8.84;87.09;101131.04;5019586;56;1138848;-80
2023/05/06 03:02:13;;;;;;;9.60;4.77;;;;;;;8.82;86.82;101140.83;5032474;57;1136999;-78
2023/05/06 03:07:19;;;;;;;14.37;5.60;;;;;;;8.80;86.54;101140.92;5052943;56;1134676;-76
2023/05/06 03:12:25;;;;;;;12.78;6.08;;;;;;;8.81;86.08;101136.02;5038959;56;1138914;-75
2023/05/06 03:17:31;;;;;;;14.63;4.90;;;;;;;8.81;85.70;101126.80;5043491;56;1138662;-76
2023/05/06 03:22:37;;;;;;;11.34;5.46;;;;;;;8.73;84.27;101114.52;5024796;56;1139024;-79
2023/05/06 03:27:43;;;;;;;8.00;4.58;;;;;;;8.73;84.27;101114.52;5062696;57;1137031;-74
2023/05/06 03:32:50;;;;;;;9.13;4.83;;;;;;;8.70;83.72;101113.42;5041994;56;1134723;-75
2023/05/06 03:37:57;;;;;;;14.17;5.47;;;;;;;8.64;83.15;101107.18;5042632;55;1134660;-76
2023/05/06 03:43:05;;;;;;;10.33;5.77;;;;;;;8.57;82.38;101107.16;4978533;57;1136653;-76
2023/05/06 03:48:11;;;;;;;7.03;4.23;;;;;;;8.51;81.65;101100.95;5033548;55;1136635;-79
2023/05/06 03:53:18;;;;;;;17.37;6.47;;;;;;;8.51;81.74;101106.69;4992818;56;1134449;-78
2023/05/06 03:58:25;;;;;;;11.40;4.47;;;;;;;8.50;80.82;101107.63;5044104;56;1136868;-79
2023/05/06 04:03:31;;;;;;;12.97;5.27;;;;;;;8.49;80.34;101105.93;5022773;57;1136840;-78
2023/05/06 04:08:37;;;;;;;19.75;4.78;;;;;;;8.48;79.76;101103.77;5041028;55;1136765;-77
2023/05/06 04:13:42;;;;;;;7.37;4.60;;;;;;;8.49;79.36;101112.05;4937894;57;1136750;-75
2023/05/06 04:18:50;;;;;;;10.13;4.73;;;;;;;8.47;79.08;101112.61;5019498;56;1134565;-78
2023/05/06 04:23:56;;;;;;;5.77;3.73;;;;;;;8.47;78.67;101102.06;4999604;56;1136621;-76
2023/05/06 04:29:03;;;;;;;9.43;4.27;;;;;;;8.46;78.37;101105.64;5000257;56;1134544;-76
2023/05/06 04:34:11;;;;;;;9.70;4.90;;;;;;;8.47;77.78;101102.06;5019767;56;1134629;-78
2023/05/06 04:39:17;;;;;;;6.07;3.77;;;;;;;8.46;77.33;101099.05;5000017;56;1134478;-77
2023/05/06 04:44:23;;;;;;;9.90;3.53;;;;;;;8.46;77.63;101092.45;4979946;56;1134703;-76
2023/05/06 04:49:30;;;;;;;13.73;4.40;;;;;;;8.45;76.84;101087.66;4948556;57;1134671;-78
2023/05/06 04:54:36;;;;;;;13.43;4.05;;;;;;;8.48;76.52;101094.53;4952352;56;1136695;-78
2023/05/06 04:59:42;;;;;;;7.28;4.33;;;;;;;8.50;75.11;101090.49;4995318;57;1136807;-75
2023/05/06 05:04:49;;;;;;;9.20;4.13;;;;;;;8.54;75.46;101086.27;5011805;57;1134769;-77
2023/05/06 05:09:55;;;;;;;15.23;4.87;;;;;;;8.57;75.28;101075.98;4929017;57;1134605;-78
2023/05/06 05:15:02;;;;;;;9.10;4.30;;;;;;;8.57;73.89;101070.24;4954677;56;1136707;-76
2023/05/06 05:20:08;;;;;;;11.97;3.52;;;;;;;8.57;73.55;101072.03;4974793;57;1134813;-77
2023/05/06 05:25:14;;;;;;;7.33;3.63;;;;;;;8.58;73.29;101069.77;4951674;57;1136769;-78
2023/05/06 05:30:21;;;;;;;6.80;3.10;;;;;;;8.59;73.02;101081.55;4951756;57;1134659;-76
2023/05/06 05:35:27;;;;;;;7.00;3.12;;;;;;;8.61;72.00;101086.73;4971471;57;1134806;-77
2023/05/06 05:40:33;;;;;;;11.77;4.03;;;;;;;8.64;72.06;101086.55;4952464;57;1134822;-78
2023/05/06 05:45:38;;;;;;;10.00;3.30;;;;;;;8.66;71.84;101082.04;4978304;56;1136659;-77
2023/05/06 05:50:45;;;;;;;10.98;3.47;;;;;;;8.71;72.76;101083.44;4887085;58;1136676;-79
2023/05/06 05:55:51;;;;;;;6.33;3.40;;;;;;;8.71;71.37;101081.27;4954694;56;1136633;-78
2023/05/06 06:00:57;;;;;;;7.30;3.67;;;;;;;8.71;70.96;101091.34;5014174;55;1134595;-79
2023/05/06 06:06:03;;;;;;;9.53;3.77;;;;;;;8.70;71.15;101096.75;5011167;56;1135023;-77
2023/05/06 06:11:09;;;;;;;9.90;3.80;;;;;;;8.71;71.63;101106.32;4951697;57;1134665;-77
2023/05/06 06:16:17;;;;;;;12.07;4.40;;;;;;;8.76;71.26;101107.75;4959343;56;1134722;-77
2023/05/06 06:21:22;;;;;;;11.43;3.63;;;;;;;8.76;71.30;101112.17;5019022;56;1136681;-77
2023/05/06 06:26:28;;;;;;;9.63;3.67;;;;;;;8.75;71.04;101113.11;4996171;56;1136624;-75
2023/05/06 06:31:34;;;;;;;10.17;4.00;;;;;;;8.76;71.60;101114.81;4994525;57;1189394;-73
2023/05/06 06:36:43;;;;;;;7.77;4.70;;;;;;;8.78;71.67;101112.47;4985695;56;1136651;-77
2023/05/06 06:41:48;;;;;;;13.98;3.52;;;;;;;8.81;71.89;101107.48;4998737;57;1134739;-73
2023/05/06 06:46:53;;;;;;;14.27;4.10;;;;;;;8.85;71.60;101118.23;4974902;57;1136640;-75
2023/05/06 06:51:59;;;;;;;7.27;3.90;;;;;;;8.86;72.75;101109.84;4940124;57;1136903;-73
2023/05/06 06:57:06;;;;;;;9.30;3.73;;;;;;;8.85;73.02;101106.36;5040843;57;1134487;-76
2023/05/06 07:02:12;;;;;;;9.43;3.23;;;;;;;8.83;73.53;101103.44;4999370;56;1134568;-75
2023/05/06 07:07:17;;;;;;;5.37;3.13;;;;;;;8.83;74.65;101107.39;4976042;57;1134449;-74
2023/05/06 07:12:25;;;;;;;5.43;3.50;;;;;;;8.79;75.02;101104.94;4963222;58;1134599;-76
2023/05/06 07:17:30;;;;;;;16.33;4.23;;;;;;;8.80;74.38;101101.83;4974201;57;1135419;-74
2023/05/06 07:22:35;;;;;;;6.07;4.07;;;;;;;8.81;74.25;101104.37;5035035;56;1136905;-76
2023/05/06 07:27:41;;;;;;;9.18;3.60;;;;;;;8.87;75.38;101107.09;4979404;57;1134791;-78
2023/05/06 07:32:47;;;;;;;11.40;3.25;;;;;;;8.89;76.61;101105.20;4977045;57;1134591;-74
2023/05/06 07:37:53;;;;;;;24.37;7.63;;;;;;;8.85;75.65;101105.52;4998429;57;1171377;-75
2023/05/06 07:42:58;;;;;;;9.77;5.03;;;;;;;8.85;76.40;101108.16;4921887;57;1207235;-74
2023/05/06 07:48:04;;;;;;;6.00;4.23;;;;;;;8.82;76.46;101111.81;4947932;58;1134764;-76
2023/05/06 07:53:10;;;;;;;10.17;4.20;;;;;;;8.81;77.14;101115.39;4914179;57;1134710;-76
2023/05/06 07:58:16;;;;;;;11.60;3.73;;;;;;;8.78;76.96;101111.15;4923762;57;1136900;-77
2023/05/06 08:03:21;;;;;;;91.93;51.50;;;;;;;8.74;77.12;101114.91;4947087;58;1136757;-75
2023/05/06 08:08:27;;;;;;;33.07;17.70;;;;;;;8.69;79.01;101120.09;4918530;58;1247074;-76
2023/05/06 08:13:34;;;;;;;69.65;31.80;;;;;;;8.66;79.68;101126.87;4942005;57;1223668;-77
2023/05/06 08:18:39;;;;;;;11.25;5.95;;;;;;;8.64;81.22;101125.64;4976902;57;1224935;-73
2023/05/06 08:23:45;;;;;;;150.65;81.72;;;;;;;8.58;81.29;101122.50;5013440;56;1213167;-76
2023/05/06 08:28:51;;;;;;;65.57;37.53;;;;;;;8.51;83.61;101126.00;4978093;56;1237238;-73
2023/05/06 08:33:56;;;;;;;26.17;15.93;;;;;;;8.44;86.94;101133.41;4981166;57;1141511;-76
2023/05/06 08:39:02;;;;;;;12.80;6.03;;;;;;;8.36;87.29;101137.44;5026307;57;1140754;-74
2023/05/06 08:44:08;;;;;;;6.70;3.97;;;;;;;8.29;88.26;101142.17;4954341;57;1237057;-75
2023/05/06 08:49:15;;;;;;;10.37;4.23;;;;;;;8.22;89.44;101143.48;4937927;57;1136686;-74
2023/05/06 08:54:24;;;;;;;8.50;5.40;;;;;;;8.17;91.96;101149.48;4985453;56;1138834;-72
2023/05/06 08:59:32;;;;;;;5.53;4.40;;;;;;;8.11;95.38;101156.41;4977239;56;1136931;-75
2023/05/06 09:04:38;;;;;;;8.43;4.47;;;;;;;8.15;95.87;101159.25;4966446;56;1136639;-76
2023/05/06 09:09:44;;;;;;;13.58;4.85;;;;;;;8.12;97.43;101162.05;4974678;55;1136760;-75
2023/05/06 09:14:51;;;;;;;6.87;3.83;;;;;;;8.11;99.95;101162.98;5011753;57;1138953;-76
2023/05/06 09:19:58;;;;;;;13.93;8.97;;;;;;;8.09;99.76;101156.98;4899412;58;1136548;-76
2023/05/06 09:25:04;;;;;;;14.93;7.63;;;;;;;7.99;100.00;101172.91;4927989;57;1218828;-76
2023/05/06 09:30:12;;;;;;;8.53;7.23;;;;;;;8.00;100.00;101175.93;4955944;57;1141086;-76
2023/05/06 09:35:18;;;;;;;14.67;5.33;;;;;;;7.96;100.00;101173.92;5015405;55;1156994;-74
2023/05/06 09:40:28;;;;;;;8.30;4.60;;;;;;;7.94;100.00;101170.56;5047069;56;1147802;-75
2023/05/06 09:45:35;;;;;;;10.27;5.73;;;;;;;7.94;100.00;101165.76;5052709;55;1192865;-77
2023/05/06 09:50:42;;;;;;;10.20;5.10;;;;;;;7.88;100.00;101159.04;5056542;56;1150635;-76
2023/05/06 09:55:48;;;;;;;14.15;6.20;;;;;;;7.83;100.00;101149.22;5035314;56;1140820;-78
2023/05/06 10:00:55;;;;;;;14.67;7.77;;;;;;;7.75;100.00;101148.34;5053135;56;1140915;-76
2023/05/06 10:06:06;;;;;;;11.50;5.13;;;;;;;7.66;100.00;101143.58;5070189;56;1140827;-75
2023/05/06 10:11:13;;;;;;;7.57;4.90;;;;;;;7.63;100.00;101135.88;5036193;56;1140901;-75
2023/05/06 10:16:20;;;;;;;8.60;5.37;;;;;;;7.63;100.00;101133.70;5042711;56;1138759;-77
2023/05/06 10:21:28;;;;;;;4.97;3.95;;;;;;;7.62;100.00;101130.69;5058935;56;1138750;-78
2023/05/06 10:26:37;;;;;;;9.87;5.13;;;;;;;7.60;100.00;101116.76;4964255;56;1138898;-80
2023/05/06 10:31:53;;;;;;;9.75;5.20;;;;;;;7.53;100.00;101110.97;4934726;57;1138954;-76
2023/05/06 10:37:01;;;;;;;12.93;6.37;;;;;;;7.53;100.00;101116.23;4948013;57;1138820;-77
2023/05/06 10:42:10;;;;;;;14.33;6.50;;;;;;;7.57;100.00;101119.55;4988427;55;1140983;-77
2023/05/06 10:47:15;;;;;;;8.73;5.20;;;;;;;7.61;100.00;101139.05;4996805;55;1141071;-79
2023/05/06 10:52:21;;;;;;;18.27;5.77;;;;;;;7.66;100.00;101119.03;4989483;57;1138888;-77
2023/05/06 10:57:29;;;;;;;17.50;5.60;;;;;;;7.68;100.00;101123.28;4959094;57;1140981;-78
2023/05/06 11:02:35;;;;;;;6.70;5.10;;;;;;;7.69;100.00;101120.18;4941168;57;1140895;-78
2023/05/06 11:07:41;;;;;;;10.60;6.70;;;;;;;7.67;100.00;101126.84;4975259;57;1141749;-81
2023/05/06 11:12:54;;;;;;;12.50;5.00;;;;;;;7.65;100.00;101126.55;5019640;57;1140763;-76
2023/05/06 11:18:00;;;;;;;18.30;8.83;;;;;;;7.65;100.00;101126.55;5000075;57;1140883;-80
2023/05/06 11:23:06;;;;;;;15.77;5.27;;;;;;;7.64;100.00;101113.00;4935130;57;1140831;-77
2023/05/06 11:28:14;;;;;;;7.63;5.67;;;;;;;7.62;100.00;101104.37;5007139;57;1140906;-77
2023/05/06 11:33:20;;;;;;;14.43;4.90;;;;;;;7.63;100.00;101112.18;5008885;57;1138792;-80
2023/05/06 11:38:44;;;;;;;7.73;4.63;;;;;;;7.61;100.00;101115.36;4984126;57;1140844;-77
2023/05/06 11:43:52;;;;;;;12.37;6.57;;;;;;;7.62;100.00;101112.27;5012050;56;1138778;-78
2023/05/06 11:48:58;;;;;;;14.80;6.53;;;;;;;7.58;100.00;101116.84;5004912;55;1141088;-78
2023/05/06 11:54:09;;;;;;;11.93;5.67;;;;;;;7.57;100.00;101121.72;4865806;59;1141088;-77
2023/05/06 11:59:15;;;;;;;11.93;6.73;;;;;;;7.57;100.00;101126.98;5005614;56;1141035;-79
2023/05/06 12:04:20;;;;;;;11.50;7.47;;;;;;;7.62;100.00;101128.91;5017795;56;1140920;-77
2023/05/06 12:09:26;;;;;;;27.40;14.13;;;;;;;7.66;100.00;101129.09;4996082;56;1140809;-76
2023/05/06 12:14:32;;;;;;;14.00;6.60;;;;;;;7.67;100.00;101129.48;5005784;55;1142764;-76
2023/05/06 12:19:39;;;;;;;11.35;7.08;;;;;;;7.67;100.00;101133.43;5002246;55;1141063;-75
2023/05/06 12:24:47;;;;;;;8.80;6.27;;;;;;;7.63;100.00;101132.39;4888827;58;1141019;-78
2023/05/06 12:29:53;;;;;;;11.90;6.73;;;;;;;7.67;100.00;101134.74;4990064;57;1139000;-79
2023/05/06 12:35:04;;;;;;;9.97;6.00;;;;;;;7.70;100.00;101142.95;4958494;57;1141040;-78
2023/05/06 12:40:09;;;;;;;8.63;5.63;;;;;;;7.73;100.00;101152.00;4887224;58;1138713;-79
2023/05/06 12:45:16;;;;;;;8.70;4.50;;;;;;;7.73;100.00;101146.73;4926820;57;1139000;-76
2023/05/06 12:50:43;;;;;;;4.83;4.33;;;;;;;7.69;100.00;101150.45;4944564;58;1138834;-77
2023/05/06 12:55:49;;;;;;;9.63;5.62;;;;;;;7.71;100.00;101152.08;4999794;57;1138780;-74
2023/05/06 13:00:54;;;;;;;38.30;24.77;;;;;;;7.71;100.00;101149.45;5018738;57;1138828;-77
2023/05/06 13:06:00;;;;;;;12.80;6.63;;;;;;;7.77;100.00;101153.53;4995120;57;1143064;-78
2023/05/06 13:11:06;;;;;;;6.83;5.13;;;;;;;7.82;100.00;101154.10;5003895;56;1141046;-76
2023/05/06 13:16:11;;;;;;;6.80;5.13;;;;;;;7.88;100.00;101171.36;5019094;57;1138827;-76
2023/05/06 13:21:17;;;;;;;11.37;4.97;;;;;;;7.88;100.00;101170.89;4999588;56;1138725;-75
2023/05/06 13:26:23;;;;;;;7.70;4.70;;;;;;;7.89;100.00;101176.55;4999239;57;1141125;-78
2023/05/06 13:31:29;;;;;;;11.67;6.37;;;;;;;7.91;100.00;101183.89;5025628;57;1138867;-77
2023/05/06 13:36:35;;;;;;;29.67;15.70;;;;;;;7.94;100.00;101181.56;5013399;56;1140916;-77
2023/05/06 13:41:40;;;;;;;55.10;26.87;;;;;;;7.93;100.00;101179.39;4990402;56;1143028;-76
2023/05/06 13:46:46;;;;;;;34.53;19.70;;;;;;;7.97;100.00;101190.12;5008211;56;1142806;-78
2023/05/06 13:51:52;;;;;;;18.32;10.85;;;;;;;8.03;100.00;101196.37;5013439;56;1143066;-75
2023/05/06 13:56:57;;;;;;;20.43;9.70;;;;;;;8.05;100.00;101188.38;4991010;56;1142959;-75
2023/05/06 14:02:04;;;;;;;23.60;12.47;;;;;;;8.01;100.00;101183.75;5016786;57;1141088;-76
2023/05/06 14:07:09;;;;;;;39.27;19.37;;;;;;;8.03;100.00;101181.88;5012796;57;1143111;-78
2023/05/06 14:12:15;;;;;;;13.50;8.50;;;;;;;8.04;100.00;101182.27;5012206;56;1143000;-74
2023/05/06 14:17:20;;;;;;;8.40;5.73;;;;;;;8.11;100.00;101177.02;4997114;56;1140806;-75
2023/05/06 14:22:28;;;;;;;13.40;5.57;;;;;;;8.16;100.00;101177.23;4994931;56;1138934;-76
2023/05/06 14:27:33;;;;;;;13.05;6.87;;;;;;;8.23;100.00;101181.23;4999245;56;1140856;-77
2023/05/06 14:32:39;;;;;;;13.03;7.50;;;;;;;8.27;100.00;101180.09;4998668;56;1140844;-73
2023/05/06 14:37:45;;;;;;;6.65;5.35;;;;;;;8.30;100.00;101173.33;5025423;56;1141168;-74
2023/05/06 14:42:52;;;;;;;28.40;15.48;;;;;;;8.36;100.00;101178.30;5013646;56;1138959;-74
2023/05/06 14:47:58;;;;;;;22.73;14.43;;;;;;;8.39;100.00;101177.66;4980048;56;1143020;-77
2023/05/06 14:53:03;;;;;;;31.77;17.10;;;;;;;8.43;100.00;101179.62;4952787;57;1142965;-76
2023/05/06 14:58:09;;;;;;;20.07;12.77;;;;;;;8.46;100.00;101181.61;5013226;56;1143117;-77
2023/05/06 15:03:14;;;;;;;10.23;7.40;;;;;;;8.49;100.00;101186.33;5057631;56;1142964;-76
2023/05/06 15:08:20;;;;;;;12.67;7.80;;;;;;;8.49;100.00;101188.50;5115888;56;1140911;-78
2023/05/06 15:13:25;;;;;;;9.03;6.70;;;;;;;8.52;100.00;101187.48;5095386;56;1140970;-76
2023/05/06 15:18:31;;;;;;;9.97;7.47;;;;;;;8.52;100.00;101187.02;5044946;56;1139350;-74
2023/05/06 15:23:37;;;;;;;18.67;12.47;;;;;;;8.51;100.00;101181.36;5013480;56;1138872;-73
2023/05/06 15:28:43;;;;;;;39.37;24.63;;;;;;;8.47;100.00;101181.14;5032533;56;1142941;-76
2023/05/06 15:33:48;;;;;;;30.27;15.23;;;;;;;8.53;100.00;101187.86;5001759;57;1142985;-73
2023/05/06 15:38:57;;;;;;;20.10;12.60;;;;;;;8.53;100.00;101186.55;4985521;57;1143130;-76
2023/05/06 15:44:04;;;;;;;24.13;13.63;;;;;;;8.50;100.00;101184.08;5053038;56;1142885;-73
2023/05/06 15:49:10;;;;;;;19.70;10.17;;;;;;;8.48;100.00;101185.48;5033940;56;1143042;-74
2023/05/06 15:54:20;;;;;;;13.43;10.43;;;;;;;8.46;100.00;101178.12;5040748;55;1142973;-76
2023/05/06 15:59:26;;;;;;;21.47;13.10;;;;;;;8.44;100.00;101176.90;5019959;57;1143026;-77
2023/05/06 16:04:31;;;;;;;11.47;7.83;;;;;;;8.41;100.00;101184.98;5000694;57;1142931;-78
2023/05/06 16:09:37;;;;;;;10.10;7.27;;;;;;;8.41;100.00;101185.45;5000630;57;1140799;-77
2023/05/06 16:14:43;;;;;;;12.43;9.10;;;;;;;8.38;100.00;101182.55;4980857;57;1140862;-76
2023/05/06 16:19:49;;;;;;;10.80;7.53;;;;;;;8.36;100.00;101198.06;5026219;57;1140936;-75
2023/05/06 16:24:54;;;;;;;11.53;8.10;;;;;;;8.40;100.00;101199.09;4998891;56;1140761;-77
2023/05/06 16:30:00;;;;;;;11.83;7.97;;;;;;;8.41;100.00;101192.03;5005256;57;1141066;-77
2023/05/06 16:35:06;;;;;;;15.13;7.63;;;;;;;8.43;100.00;101207.30;5027341;57;1140849;-77
2023/05/06 16:40:17;;;;;;;14.43;10.77;;;;;;;8.43;100.00;101200.70;5007132;57;1140778;-76
2023/05/06 16:45:22;;;;;;;18.87;13.87;;;;;;;8.41;100.00;101201.26;4998148;57;1143122;-78
2023/05/06 16:50:28;;;;;;;19.17;11.68;;;;;;;8.39;100.00;101211.06;5024079;57;1143034;-76
2023/05/06 16:55:34;;;;;;;17.63;9.73;;;;;;;8.38;100.00;101212.00;4969809;57;1217612;-76
2023/05/06 17:00:40;;;;;;;23.90;13.80;;;;;;;8.35;100.00;101212.17;5037241;56;1140994;-76
2023/05/06 17:05:45;;;;;;;51.68;24.37;;;;;;;8.40;100.00;101214.09;5041933;55;1143009;-76
2023/05/06 17:10:51;;;;;;;41.37;20.68;;;;;;;8.38;100.00;101214.64;5062470;55;1143045;-77
2023/05/06 17:15:57;;;;;;;48.08;22.17;;;;;;;8.39;100.00;101218.52;5030590;56;1143047;-78
2023/05/06 17:21:02;;;;;;;18.75;10.05;;;;;;;8.38;100.00;101218.12;5042395;56;1142883;-76
2023/05/06 17:26:08;;;;;;;30.30;18.40;;;;;;;8.37;100.00;101218.21;5062728;55;1143171;-75
2023/05/06 17:31:15;;;;;;;21.57;10.28;;;;;;;8.39;100.00;101221.61;5042236;55;1143102;-75
2023/05/06 17:36:21;;;;;;;21.07;13.37;;;;;;;8.40;100.00;101216.72;5041854;55;1143132;-77
2023/05/06 17:41:27;;;;;;;39.42;19.07;;;;;;;8.38;100.00;101221.23;5058103;55;1142903;-74
2023/05/06 17:46:32;;;;;;;29.93;14.87;;;;;;;8.37;100.00;101228.28;4953420;56;1143209;-78
2023/05/06 17:51:39;;;;;;;22.63;12.27;;;;;;;8.38;100.00;101229.98;5007431;56;1143122;-75
2023/05/06 17:56:49;;;;;;;18.70;9.10;;;;;;;8.37;100.00;101237.98;5020386;56;1143026;-78
2023/05/06 18:01:52;;;;;;;11.48;8.08;;;;;;;8.34;100.00;101246.05;4900983;55;1140873;-78
2023/05/06 18:06:58;;;;;;;17.73;7.37;;;;;;;8.36;100.00;101249.45;4882077;57;1140896;-79
2023/05/06 18:12:03;;;;;;;25.53;11.57;;;;;;;8.31;100.00;101248.83;4915317;56;1140986;-77
2023/05/06 18:17:09;;;;;;;21.80;11.00;;;;;;;8.28;100.00;101254.27;4997018;56;1142869;-77
2023/05/06 18:22:15;;;;;;;21.33;10.53;;;;;;;8.28;100.00;101257.75;5022190;56;1142884;-75
2023/05/06 18:27:21;;;;;;;12.87;7.03;;;;;;;8.29;100.00;101258.59;5022505;56;1142909;-76
2023/05/06 18:32:26;;;;;;;27.77;10.67;;;;;;;8.30;100.00;101261.15;5042530;56;1141298;-75
2023/05/06 18:37:32;;;;;;;9.60;6.57;;;;;;;8.30;100.00;101266.42;5021460;57;1142947;-76
2023/05/06 18:42:38;;;;;;;17.10;9.73;;;;;;;8.30;100.00;101274.33;4950171;57;1139081;-76
2023/05/06 18:47:43;;;;;;;17.77;8.60;;;;;;;8.28;100.00;101269.61;4896329;58;1140976;-74
2023/05/06 18:52:49;;;;;;;11.23;6.10;;;;;;;8.25;100.00;101284.77;5001006;57;1140811;-74
2023/05/06 18:57:55;;;;;;;15.83;8.47;;;;;;;8.23;100.00;101283.99;4923471;57;1140902;-76
2023/05/06 19:03:00;;;;;;;13.10;7.40;;;;;;;8.19;100.00;101290.36;5008567;57;1140939;-75
2023/05/06 19:08:08;;;;;;;10.87;6.63;;;;;;;8.20;100.00;101288.11;5019992;57;1141214;-74
2023/05/06 19:13:14;;;;;;;13.00;7.33;;;;;;;8.23;100.00;101298.02;5008055;57;1141060;-77
2023/05/06 19:18:19;;;;;;;13.80;5.97;;;;;;;8.19;100.00;101299.12;5011480;57;1141259;-76
2023/05/06 19:23:25;;;;;;;11.10;6.57;;;;;;;8.17;100.00;101302.77;4947012;57;1140980;-75
2023/05/06 19:28:31;;;;;;;15.27;6.93;;;;;;;8.16;100.00;101305.02;4932274;56;1140791;-74
2023/05/06 19:33:39;;;;;;;22.77;15.58;;;;;;;8.11;100.00;101307.89;4929234;56;1140809;-74
2023/05/06 19:38:46;;;;;;;14.76;8.38;;;;;;;8.07;100.00;101309.02;4977714;56;1143038;-79
2023/05/06 19:43:51;;;;;;;147.85;108.80;;;;;;;8.09;100.00;101312.42;4950931;58;1141011;-79
2023/05/06 19:48:57;;;;;;;19.87;12.97;;;;;;;8.08;100.00;101317.30;5001012;57;1147058;-76
2023/05/06 19:54:03;;;;;;;16.02;9.55;;;;;;;8.02;100.00;101311.89;5012854;57;1142920;-75
2023/05/06 19:59:08;;;;;;;26.23;14.00;;;;;;;8.01;100.00;101319.41;5117404;56;1140751;-79
2023/05/06 20:04:14;;;;;;;15.90;9.30;;;;;;;8.02;100.00;101316.31;5096220;56;1142836;-76
2023/05/06 20:09:20;;;;;;;15.30;10.57;;;;;;;8.00;100.00;101317.70;5097539;56;1140813;-77
2023/05/06 20:14:25;;;;;;;15.03;8.00;;;;;;;8.00;100.00;101320.80;5111370;56;1142876;-78
2023/05/06 20:19:31;;;;;;;23.37;15.77;;;;;;;8.00;100.00;101315.54;5084898;56;1140935;-77
2023/05/06 20:24:40;;;;;;;22.97;13.40;;;;;;;7.97;100.00;101321.81;5069039;56;1143113;-79
2023/05/06 20:29:45;;;;;;;15.55;10.78;;;;;;;7.97;100.00;101325.77;5094671;55;1143038;-77
2023/05/06 20:34:52;;;;;;;13.18;7.75;;;;;;;7.97;100.00;101324.45;5115136;55;1142916;-76
2023/05/06 20:40:00;;;;;;;16.10;8.68;;;;;;;7.99;100.00;101326.55;5087086;55;1140751;-76
2023/05/06 20:45:07;;;;;;;19.07;9.27;;;;;;;7.98;100.00;101323.98;5070108;56;1140930;-78
2023/05/06 20:50:15;;;;;;;20.80;8.43;;;;;;;7.95;100.00;101328.09;5116096;56;1140777;-77
2023/05/06 20:55:21;;;;;;;17.07;9.67;;;;;;;7.94;100.00;101326.42;5067281;56;1140945;-76
2023/05/06 21:00:27;;;;;;;24.23;11.20;;;;;;;7.90;100.00;101332.31;5096371;55;1141255;-76
2023/05/06 21:05:33;;;;;;;18.43;11.00;;;;;;;7.88;100.00;101331.55;5115038;55;1142817;-76
2023/05/06 21:10:38;;;;;;;21.47;12.23;;;;;;;7.87;100.00;101332.47;5096532;55;1142890;-79
2023/05/06 21:15:44;;;;;;;18.77;8.47;;;;;;;7.87;100.00;101345.64;5096251;55;1142975;-76
2023/05/06 21:20:49;;;;;;;25.20;14.37;;;;;;;7.84;100.00;101344.48;5116240;55;1140878;-78
2023/05/06 21:25:57;;;;;;;19.75;10.43;;;;;;;7.82;100.00;101348.13;5096762;55;1143087;-78
2023/05/06 21:31:04;;;;;;;17.23;9.60;;;;;;;7.85;100.00;101350.59;5026537;55;1142977;-76
2023/05/06 21:36:09;;;;;;;13.27;9.17;;;;;;;7.93;100.00;101350.59;5033650;55;1141073;-76
2023/05/06 21:41:15;;;;;;;22.63;11.87;;;;;;;7.89;100.00;101352.15;5043575;55;1141051;-76
2023/05/06 21:46:21;;;;;;;17.07;7.33;;;;;;;7.87;100.00;101356.64;5097422;56;1142990;-76
2023/05/06 21:51:32;;;;;;;12.27;7.73;;;;;;;7.87;100.00;101355.33;5126149;56;1141079;-77
2023/05/06 21:56:37;;;;;;;15.50;7.90;;;;;;;7.90;100.00;101353.39;5044626;56;1140962;-76
2023/05/06 22:01:43;;;;;;;14.37;10.50;;;;;;;7.88;100.00;101348.66;5022929;56;1140994;-76
2023/05/06 22:06:49;;;;;;;22.60;14.30;;;;;;;7.90;100.00;101352.07;5022631;56;1143126;-77
2023/05/06 22:11:54;;;;;;;17.92;11.03;;;;;;;7.90;100.00;101353.39;4939901;56;1142881;-78
2023/05/06 22:17:06;;;;;;;17.17;10.05;;;;;;;7.89;100.00;101350.83;4960147;56;1143020;-78
2023/05/06 22:22:07;;;;;;;25.50;15.37;;;;;;;7.83;100.00;101351.14;5125653;55;1143004;-77
2023/05/06 22:27:13;;;;;;;16.77;9.33;;;;;;;7.81;100.00;101353.86;5084169;54;1143074;-78
2023/05/06 22:32:20;;;;;;;15.07;9.03;;;;;;;7.81;100.00;101353.00;4937561;56;1140939;-78
2023/05/06 22:37:26;;;;;;;11.07;8.17;;;;;;;7.87;100.00;101360.59;4943258;56;1140931;-76
2023/05/06 22:42:31;;;;;;;18.13;7.90;;;;;;;7.82;100.00;101358.66;4927314;55;1140880;-76
2023/05/06 22:47:37;;;;;;;13.50;7.93;;;;;;;7.83;100.00;101362.53;4867500;59;1140945;-78
2023/05/06 22:52:42;;;;;;;13.70;7.40;;;;;;;7.82;100.00;101360.83;4876149;59;1140984;-77
2023/05/06 22:57:48;;;;;;;14.83;8.23;;;;;;;7.80;100.00;101367.95;4990931;57;1141002;-76
2023/05/06 23:02:54;;;;;;;17.67;8.50;;;;;;;7.77;100.00;101372.09;5032412;56;1140940;-77